createdAt,value
2018-08-18T00:00:16.560Z,20.40
2018-08-18T00:02:46.046Z,20.29
2018-08-18T00:05:15.375Z,20.31
2018-08-18T00:07:44.643Z,20.27
2018-08-18T00:10:16.341Z,20.28
2018-08-18T00:12:45.742Z,20.24
2018-08-18T00:15:14.452Z,20.18
2018-08-18T00:17:45.076Z,20.10
2018-08-18T00:20:18.140Z,19.99
2018-08-18T00:22:46.909Z,19.97
2018-08-18T00:25:15.396Z,19.93
2018-08-18T00:27:45.040Z,19.84
2018-08-18T00:30:19.344Z,19.76
2018-08-18T00:32:48.601Z,19.62
2018-08-18T00:35:17.825Z,19.60
2018-08-18T00:37:46.297Z,19.69
2018-08-18T00:40:14.641Z,19.58
2018-08-18T00:42:44.492Z,19.58
2018-08-18T00:45:14.541Z,19.62
2018-08-18T00:47:44.378Z,19.60
2018-08-18T00:50:30.259Z,19.49
2018-08-18T00:52:58.589Z,19.46
2018-08-18T00:55:27.045Z,19.35
2018-08-18T00:57:55.369Z,19.26
2018-08-18T01:00:24.502Z,19.18
2018-08-18T01:02:52.922Z,19.05
2018-08-18T01:05:21.359Z,19.00
2018-08-18T01:07:49.717Z,18.87
2018-08-18T01:10:18.068Z,18.78
2018-08-18T01:12:46.415Z,18.70
2018-08-18T01:15:19.877Z,18.62
2018-08-18T01:17:49.225Z,18.57
2018-08-18T01:20:18.405Z,18.53
2018-08-18T01:22:53.242Z,18.55
2018-08-18T01:25:22.669Z,18.52
2018-08-18T01:27:51.389Z,18.52
2018-08-18T01:30:19.914Z,18.48
2018-08-18T01:32:48.217Z,18.48
2018-08-18T01:35:16.569Z,18.45
2018-08-18T01:37:44.921Z,18.40
2018-08-18T01:40:14.224Z,18.37
2018-08-18T01:42:45.129Z,18.34
2018-08-18T01:45:14.554Z,18.30
2018-08-18T01:47:44.950Z,18.21
2018-08-18T01:50:20.035Z,18.23
2018-08-18T01:52:49.281Z,18.18
2018-08-18T01:55:17.593Z,18.07
2018-08-18T01:57:47.476Z,18.02
2018-08-18T02:00:27.336Z,18.06
2018-08-18T02:02:56.629Z,18.09
2018-08-18T02:05:26.885Z,18.06
2018-08-18T02:07:56.179Z,17.91
2018-08-18T02:10:24.613Z,17.85
2018-08-18T02:13:04.263Z,17.89
2018-08-18T02:15:32.663Z,17.91
2018-08-18T02:18:02.128Z,17.87
2018-08-18T02:20:30.449Z,17.90
2018-08-18T02:22:58.880Z,17.87
2018-08-18T02:25:28.081Z,17.90
2018-08-18T02:27:57.474Z,17.92
2018-08-18T02:30:25.793Z,17.92
2018-08-18T02:32:55.152Z,17.81
2018-08-18T02:35:24.569Z,17.71
2018-08-18T02:37:53.813Z,17.70
2018-08-18T02:40:23.173Z,17.82
2018-08-18T02:42:52.298Z,17.90
2018-08-18T02:45:21.734Z,17.90
2018-08-18T02:48:13.689Z,17.86
2018-08-18T02:50:49.394Z,17.85
2018-08-18T02:53:27.305Z,18.00
2018-08-18T02:55:56.680Z,18.00
2018-08-18T02:58:25.873Z,17.93
2018-08-18T03:00:54.261Z,17.90
2018-08-18T03:03:23.464Z,17.76
2018-08-18T03:05:52.131Z,17.73
2018-08-18T03:08:21.334Z,17.90
2018-08-18T03:10:50.555Z,17.94
2018-08-18T03:13:18.873Z,17.90
2018-08-18T03:15:58.086Z,17.77
2018-08-18T03:18:37.661Z,17.70
2018-08-18T03:21:06.121Z,17.63
2018-08-18T03:23:35.808Z,17.58
2018-08-18T03:26:04.520Z,17.57
2018-08-18T03:28:42.249Z,17.57
2018-08-18T03:31:12.157Z,17.61
2018-08-18T03:33:45.905Z,17.73
2018-08-18T03:36:25.789Z,17.62
2018-08-18T03:38:56.033Z,17.48
2018-08-18T03:41:25.103Z,17.47
2018-08-18T03:43:55.132Z,17.44
2018-08-18T03:46:23.538Z,17.39
2018-08-18T03:48:52.545Z,17.34
2018-08-18T03:51:23.579Z,17.29
2018-08-18T03:53:51.901Z,17.29
2018-08-18T03:56:20.309Z,17.36
2018-08-18T03:58:52.326Z,17.45
2018-08-18T04:02:01.368Z,17.42
2018-08-18T04:04:33.187Z,17.42
2018-08-18T04:07:02.209Z,17.50
2018-08-18T04:09:31.746Z,17.47
2018-08-18T04:12:01.182Z,17.49
2018-08-18T04:14:34.819Z,17.46
2018-08-18T04:17:03.153Z,17.44
2018-08-18T04:19:31.494Z,17.41
2018-08-18T04:21:59.953Z,17.50
2018-08-18T04:24:33.908Z,17.44
2018-08-18T04:27:02.862Z,17.53
2018-08-18T04:29:31.177Z,17.55
2018-08-18T04:32:00.185Z,17.59
2018-08-18T04:34:28.502Z,17.66
2018-08-18T04:36:56.845Z,17.77
2018-08-18T04:39:25.253Z,17.75
2018-08-18T04:41:53.659Z,17.75
2018-08-18T04:44:22.084Z,17.95
2018-08-18T04:46:50.380Z,17.83
2018-08-18T04:49:19.620Z,17.84
2018-08-18T04:51:47.943Z,17.82
2018-08-18T04:54:16.265Z,17.89
2018-08-18T04:56:45.434Z,17.81
2018-08-18T04:59:14.946Z,17.92
2018-08-18T05:01:43.374Z,18.06
2018-08-18T05:04:13.773Z,18.03
2018-08-18T05:06:43.564Z,17.98
2018-08-18T05:09:13.497Z,18.00
2018-08-18T05:11:43.883Z,18.08
2018-08-18T05:14:12.569Z,18.07
2018-08-18T05:16:41.263Z,18.12
2018-08-18T05:19:09.759Z,18.17
2018-08-18T05:21:38.097Z,18.29
2018-08-18T05:24:22.508Z,18.25
2018-08-18T05:26:51.539Z,18.28
2018-08-18T05:29:19.865Z,18.34
2018-08-18T05:31:48.220Z,18.34
2018-08-18T05:34:16.619Z,18.53
2018-08-18T05:36:46.392Z,18.55
2018-08-18T05:39:15.682Z,18.65
2018-08-18T05:41:45.315Z,18.64
2018-08-18T05:44:15.643Z,18.62
2018-08-18T05:46:45.417Z,18.62
2018-08-18T05:49:16.985Z,18.67
2018-08-18T05:51:48.357Z,18.91
2018-08-18T05:54:21.293Z,18.91
2018-08-18T05:56:50.509Z,19.04
2018-08-18T05:59:18.846Z,19.02
2018-08-18T06:01:47.316Z,19.17
2018-08-18T06:04:20.713Z,19.11
2018-08-18T06:06:49.812Z,19.18
2018-08-18T06:09:20.521Z,19.21
2018-08-18T06:11:49.828Z,19.28
2018-08-18T06:14:18.733Z,19.43
2018-08-18T06:16:48.256Z,19.60
2018-08-18T06:19:16.576Z,19.49
2018-08-18T06:21:45.927Z,19.60
2018-08-18T06:24:15.445Z,19.73
2018-08-18T06:26:46.089Z,19.82
2018-08-18T06:29:15.116Z,19.92
2018-08-18T06:31:57.625Z,20.05
2018-08-18T06:34:26.554Z,20.06
2018-08-18T06:36:54.933Z,20.04
2018-08-18T06:39:23.255Z,20.18
2018-08-18T06:41:51.647Z,20.18
2018-08-18T06:44:24.512Z,20.16
2018-08-18T06:46:52.850Z,20.23
2018-08-18T06:49:21.181Z,20.41
2018-08-18T06:51:49.504Z,20.47
2018-08-18T06:54:17.827Z,20.59
2018-08-18T06:56:46.169Z,20.64
2018-08-18T06:59:15.854Z,20.72
2018-08-18T07:01:45.174Z,20.58
2018-08-18T07:04:19.171Z,20.75
2018-08-18T07:06:47.502Z,20.84
2018-08-18T07:09:16.045Z,20.90
2018-08-18T07:11:46.165Z,20.81
2018-08-18T07:14:44.825Z,20.83
2018-08-18T07:17:15.873Z,20.90
2018-08-18T07:19:45.049Z,21.12
2018-08-18T07:22:19.781Z,21.00
2018-08-18T07:24:48.226Z,21.21
2018-08-18T07:27:16.637Z,21.23
2018-08-18T07:29:50.679Z,21.40
2018-08-18T07:32:20.112Z,21.36
2018-08-18T07:34:48.524Z,21.29
2018-08-18T07:37:16.969Z,21.31
2018-08-18T07:39:46.503Z,21.47
2018-08-18T07:42:15.914Z,21.60
2018-08-18T07:44:45.106Z,21.59
2018-08-18T07:47:16.767Z,21.85
2018-08-18T07:49:45.772Z,22.13
2018-08-18T07:52:15.835Z,22.26
2018-08-18T07:54:45.681Z,22.14
2018-08-18T07:57:17.208Z,22.32
2018-08-18T07:59:46.428Z,22.15
2018-08-18T08:02:15.668Z,22.29
2018-08-18T08:04:45.601Z,22.37
2018-08-18T08:07:16.394Z,22.61
2018-08-18T08:09:46.590Z,22.66
2018-08-18T08:12:16.108Z,22.72
2018-08-18T08:14:46.902Z,22.94
2018-08-18T08:17:17.287Z,23.38
2018-08-18T08:19:47.010Z,23.37
2018-08-18T08:22:17.081Z,23.50
2018-08-18T08:24:46.330Z,23.33
2018-08-18T08:27:15.741Z,23.39
2018-08-18T08:29:45.796Z,23.18
2018-08-18T08:32:15.373Z,22.91
2018-08-18T08:34:46.541Z,22.97
2018-08-18T08:37:16.901Z,22.92
2018-08-18T08:39:47.252Z,23.24
2018-08-18T08:42:16.604Z,23.29
2018-08-18T08:44:45.834Z,23.29
2018-08-18T08:47:16.677Z,23.44
2018-08-18T08:49:45.750Z,23.17
2018-08-18T08:52:15.973Z,23.05
2018-08-18T08:54:45.544Z,23.09
2018-08-18T08:57:15.401Z,23.03
2018-08-18T08:59:46.651Z,23.10
2018-08-18T09:02:16.063Z,23.09
2018-08-18T09:04:45.064Z,22.94
2018-08-18T09:07:14.703Z,23.12
2018-08-18T09:12:13.768Z,22.86
2018-08-18T09:14:43.948Z,22.86
2018-08-18T09:17:14.823Z,23.04
2018-08-18T09:19:45.143Z,23.33
2018-08-18T09:22:15.055Z,23.38
2018-08-18T09:24:43.394Z,23.25
2018-08-18T09:27:11.947Z,23.18
2018-08-18T09:29:46.565Z,23.35
2018-08-18T09:32:16.941Z,23.46
2018-08-18T09:34:51.893Z,23.72
2018-08-18T09:37:20.840Z,23.71
2018-08-18T09:39:49.229Z,23.77
2018-08-18T09:42:18.705Z,23.99
2018-08-18T09:44:49.904Z,24.26
2018-08-18T09:47:18.232Z,24.17
2018-08-18T09:49:46.580Z,24.05
2018-08-18T09:52:16.414Z,24.12
2018-08-18T09:54:45.385Z,23.88
2018-08-18T09:57:15.209Z,24.00
2018-08-18T09:59:46.078Z,23.92
2018-08-18T10:02:16.761Z,23.87
2018-08-18T10:04:45.738Z,23.81
2018-08-18T10:07:15.265Z,23.84
2018-08-18T10:09:51.299Z,23.79
2018-08-18T10:12:19.628Z,24.05
2018-08-18T10:14:48.041Z,24.00
2018-08-18T10:17:16.373Z,23.97
2018-08-18T10:19:44.916Z,23.86
2018-08-18T10:22:15.321Z,23.78
2018-08-18T10:24:45.333Z,23.87
2018-08-18T10:27:16.921Z,24.03
2018-08-18T10:29:46.623Z,24.09
2018-08-18T10:32:16.309Z,23.87
2018-08-18T10:34:46.027Z,23.83
2018-08-18T10:37:15.904Z,24.06
2018-08-18T10:39:46.101Z,23.86
2018-08-18T10:42:21.107Z,24.12
2018-08-18T10:44:54.785Z,24.44
2018-08-18T10:47:24.189Z,24.61
2018-08-18T10:50:04.315Z,24.58
2018-08-18T10:52:44.978Z,24.89
2018-08-18T10:55:15.429Z,25.07
2018-08-18T10:57:57.049Z,25.02
2018-08-18T11:00:26.985Z,25.09
2018-08-18T11:02:56.454Z,25.38
2018-08-18T11:05:25.748Z,25.59
2018-08-18T11:07:59.935Z,25.49
2018-08-18T11:10:30.578Z,25.32
2018-08-18T11:13:00.076Z,25.44
2018-08-18T11:15:29.623Z,25.53
2018-08-18T11:17:58.699Z,25.85
2018-08-18T11:20:31.155Z,25.94
2018-08-18T11:23:16.557Z,26.30
2018-08-18T11:25:52.281Z,26.39
2018-08-18T11:28:21.265Z,26.25
2018-08-18T11:30:52.819Z,26.38
2018-08-18T11:33:34.708Z,26.57
2018-08-18T11:36:03.810Z,26.56
2018-08-18T11:38:32.761Z,26.57
2018-08-18T11:41:01.261Z,26.85
2018-08-18T11:43:31.401Z,27.00
2018-08-18T11:45:59.817Z,27.40
2018-08-18T11:48:28.136Z,27.51
2018-08-18T11:50:57.064Z,27.03
2018-08-18T11:53:25.414Z,26.77
2018-08-18T11:55:53.740Z,26.91
2018-08-18T11:58:24.295Z,26.32
2018-08-18T12:00:54.801Z,26.23
2018-08-18T12:03:25.461Z,26.25
2018-08-18T12:05:54.877Z,26.19
2018-08-18T12:08:24.341Z,25.84
2018-08-18T12:10:53.878Z,25.96
2018-08-18T12:13:29.492Z,25.68
2018-08-18T12:16:05.217Z,25.30
2018-08-18T12:18:34.065Z,25.70
2018-08-18T12:21:03.596Z,25.68
2018-08-18T12:23:35.016Z,25.77
2018-08-18T12:26:08.056Z,25.68
2018-08-18T12:28:45.913Z,25.90
2018-08-18T12:31:18.108Z,25.86
2018-08-18T12:33:47.261Z,25.83
2018-08-18T12:36:16.596Z,25.80
2018-08-18T12:38:46.461Z,25.65
2018-08-18T12:41:16.244Z,25.59
2018-08-18T12:43:49.164Z,25.60
2018-08-18T12:46:19.777Z,25.56
2018-08-18T12:48:51.262Z,25.31
2018-08-18T12:51:20.085Z,25.17
2018-08-18T12:53:50.632Z,25.44
2018-08-18T12:56:21.913Z,25.52
2018-08-18T12:58:51.136Z,25.77
2018-08-18T13:01:36.037Z,25.82
2018-08-18T13:04:07.422Z,26.10
2018-08-18T13:06:40.401Z,26.43
2018-08-18T13:09:10.938Z,26.76
2018-08-18T13:11:39.401Z,26.86
2018-08-18T13:14:07.793Z,27.04
2018-08-18T13:16:36.906Z,26.95
2018-08-18T13:19:05.917Z,26.72
2018-08-18T13:21:35.271Z,26.73
2018-08-18T13:24:03.911Z,27.09
2018-08-18T13:26:32.339Z,27.17
2018-08-18T13:29:00.733Z,27.09
2018-08-18T13:31:46.641Z,27.00
2018-08-18T13:34:16.654Z,26.76
2018-08-18T13:36:46.705Z,26.72
2018-08-18T13:39:16.798Z,26.54
2018-08-18T13:41:47.873Z,26.55
2018-08-18T13:44:27.659Z,26.50
2018-08-18T13:46:56.762Z,26.17
2018-08-18T13:49:26.817Z,26.31
2018-08-18T13:51:56.049Z,26.18
2018-08-18T13:54:25.333Z,26.29
2018-08-18T13:56:54.024Z,26.38
2018-08-18T13:59:55.412Z,26.18
2018-08-18T14:02:23.800Z,26.18
2018-08-18T14:04:53.125Z,26.19
2018-08-18T14:07:21.449Z,25.77
2018-08-18T14:09:52.625Z,25.84
2018-08-18T14:12:20.944Z,26.19
2018-08-18T14:14:50.207Z,26.51
2018-08-18T14:17:20.502Z,26.67
2018-08-18T14:19:49.505Z,26.95
2018-08-18T14:22:19.592Z,27.17
2018-08-18T14:24:48.420Z,27.45
2018-08-18T14:27:19.164Z,27.56
2018-08-18T14:29:47.521Z,27.75
2018-08-18T14:32:21.360Z,27.35
2018-08-18T14:34:55.876Z,27.24
2018-08-18T14:37:24.228Z,26.89
2018-08-18T14:39:52.585Z,27.28
2018-08-18T14:42:21.829Z,27.35
2018-08-18T14:44:51.169Z,27.30
2018-08-18T14:47:19.451Z,27.07
2018-08-18T14:49:48.713Z,27.33
2018-08-18T14:52:18.052Z,27.35
2018-08-18T14:54:47.382Z,27.07
2018-08-18T14:57:16.708Z,27.20
2018-08-18T14:59:46.263Z,27.22
2018-08-18T15:02:15.737Z,27.13
2018-08-18T15:04:45.926Z,27.04
2018-08-18T15:07:15.559Z,27.33
2018-08-18T15:09:46.299Z,27.74
2018-08-18T15:12:16.674Z,27.83
2018-08-18T15:14:45.888Z,28.18
2018-08-18T15:17:15.448Z,28.68
2018-08-18T15:19:45.409Z,28.70
2018-08-18T15:22:15.081Z,29.02
2018-08-18T15:24:45.552Z,29.09
2018-08-18T15:27:16.380Z,29.01
2018-08-18T15:29:45.716Z,28.84
2018-08-18T15:32:15.469Z,28.81
2018-08-18T15:34:45.890Z,29.25
2018-08-18T15:37:15.741Z,29.12
2018-08-18T15:39:44.857Z,29.27
2018-08-18T15:42:15.176Z,29.81
2018-08-18T15:44:55.348Z,29.37
2018-08-18T15:47:23.711Z,29.49
2018-08-18T15:49:52.921Z,29.61
2018-08-18T15:52:25.509Z,28.95
2018-08-18T15:54:53.834Z,29.02
2018-08-18T15:57:23.177Z,28.91
2018-08-18T15:59:51.517Z,28.25
2018-08-18T16:02:19.886Z,28.00
2018-08-18T16:04:49.226Z,27.40
2018-08-18T16:07:17.568Z,27.64
2018-08-18T16:09:46.941Z,27.51
2018-08-18T16:12:16.165Z,26.65
2018-08-18T16:14:46.949Z,26.71
2018-08-18T16:17:17.536Z,26.67
2018-08-18T16:19:45.863Z,26.56
2018-08-18T16:22:15.399Z,26.34
2018-08-18T16:24:47.064Z,26.21
2018-08-18T16:27:15.495Z,26.01
2018-08-18T16:29:45.384Z,25.80
2018-08-18T16:32:20.500Z,25.79
2018-08-18T16:35:00.307Z,25.59
2018-08-18T16:37:28.929Z,25.63
2018-08-18T16:39:58.550Z,25.52
2018-08-18T16:42:26.893Z,25.31
2018-08-18T16:44:56.093Z,25.37
2018-08-18T16:47:24.447Z,25.21
2018-08-18T16:49:53.569Z,25.23
2018-08-18T16:52:21.973Z,25.06
2018-08-18T16:54:51.140Z,24.90
2018-08-18T16:57:20.112Z,24.87
2018-08-18T16:59:49.448Z,24.76
2018-08-18T17:02:30.234Z,24.82
2018-08-18T17:04:58.936Z,24.82
2018-08-18T17:07:27.635Z,24.71
2018-08-18T17:09:56.178Z,24.74
2018-08-18T17:12:29.935Z,24.61
2018-08-18T17:14:59.389Z,24.49
2018-08-18T17:17:27.832Z,24.42
2018-08-18T17:19:57.169Z,24.37
2018-08-18T17:22:25.560Z,24.31
2018-08-18T17:24:54.943Z,24.22
2018-08-18T17:27:23.260Z,24.10
2018-08-18T17:29:52.774Z,24.14
2018-08-18T17:32:21.122Z,24.07
2018-08-18T17:34:49.490Z,23.90
2018-08-18T17:37:18.852Z,23.77
2018-08-18T17:39:47.184Z,23.62
2018-08-18T17:42:16.553Z,23.48
2018-08-18T17:44:45.934Z,23.43
2018-08-18T17:47:16.209Z,23.28
2018-08-18T17:49:51.717Z,23.15
2018-08-18T17:52:21.169Z,22.96
2018-08-18T17:55:04.934Z,22.79
2018-08-18T17:57:34.537Z,22.64
2018-08-18T18:00:08.206Z,22.52
2018-08-18T18:02:43.324Z,22.46
2018-08-18T18:05:13.311Z,22.41
2018-08-18T18:07:43.401Z,22.36
2018-08-18T18:10:13.801Z,22.29
2018-08-18T18:12:43.009Z,22.24
2018-08-18T18:15:22.773Z,22.16
2018-08-18T18:17:53.760Z,22.09
2018-08-18T18:20:22.084Z,22.00
2018-08-18T18:22:50.625Z,21.86
2018-08-18T18:25:21.190Z,21.79
2018-08-18T18:27:49.694Z,21.70
2018-08-18T18:30:20.981Z,21.57
2018-08-18T18:32:49.505Z,21.45
2018-08-18T18:35:19.164Z,21.37
2018-08-18T18:37:48.601Z,21.23
2018-08-18T18:40:17.040Z,21.10
2018-08-18T18:42:46.303Z,21.03
2018-08-18T18:45:15.699Z,20.94
2018-08-18T18:47:44.945Z,20.88
2018-08-18T18:50:17.665Z,20.75
2018-08-18T18:52:46.354Z,20.65
2018-08-18T18:55:15.593Z,20.58
2018-08-18T18:58:01.591Z,20.50
2018-08-18T19:00:30.706Z,20.41
2018-08-18T19:02:59.048Z,20.35
2018-08-18T19:05:28.519Z,20.31
2018-08-18T19:08:02.398Z,20.23
2018-08-18T19:10:30.743Z,20.13
2018-08-18T19:12:59.114Z,20.05
2018-08-18T19:15:28.391Z,20.00
2018-08-18T19:17:56.885Z,19.91
2018-08-18T19:20:28.268Z,19.85
2018-08-18T19:23:09.968Z,19.81
2018-08-18T19:25:39.418Z,19.79
2018-08-18T19:28:13.299Z,19.80
2018-08-18T19:30:44.126Z,19.79
2018-08-18T19:33:14.655Z,19.73
2018-08-18T19:35:47.004Z,19.67
2018-08-18T19:38:15.836Z,19.58
2018-08-18T19:40:46.958Z,19.53
2018-08-18T19:43:17.619Z,19.48
2018-08-18T19:45:46.040Z,19.42
2018-08-18T19:48:17.656Z,19.40
2018-08-18T19:50:52.523Z,19.31
2018-08-18T19:53:26.595Z,19.22
2018-08-18T19:55:55.925Z,19.14
2018-08-18T19:58:24.944Z,19.05
2018-08-18T20:00:53.379Z,19.02
2018-08-18T20:03:22.264Z,18.95
2018-08-18T20:05:50.627Z,18.89
2018-08-18T20:08:20.823Z,18.82
2018-08-18T20:10:54.515Z,18.75
2018-08-18T20:13:23.766Z,18.66
2018-08-18T20:15:53.416Z,18.65
2018-08-18T20:18:21.786Z,18.58
2018-08-18T20:20:50.119Z,18.59
2018-08-18T20:23:19.557Z,18.59
2018-08-18T20:25:48.589Z,18.58
2018-08-18T20:28:16.924Z,18.51
2018-08-18T20:30:46.368Z,18.44
2018-08-18T20:33:15.820Z,18.37
2018-08-18T20:35:46.429Z,18.32
2018-08-18T20:38:15.412Z,18.30
2018-08-18T20:40:44.914Z,18.22
2018-08-18T20:43:15.168Z,18.18
2018-08-18T20:45:47.632Z,18.17
2018-08-18T20:48:17.833Z,18.12
2018-08-18T20:50:46.313Z,18.04
2018-08-18T20:53:17.048Z,17.98
2018-08-18T20:56:03.611Z,17.94
2018-08-18T20:58:34.242Z,17.91
2018-08-18T21:01:24.773Z,17.93
2018-08-18T21:03:53.724Z,17.93
2018-08-18T21:06:23.049Z,17.88
2018-08-18T21:08:51.876Z,17.90
2018-08-18T21:11:20.286Z,17.89
2018-08-18T21:13:50.693Z,17.85
2018-08-18T21:16:19.868Z,17.80
2018-08-18T21:18:48.208Z,17.73
2018-08-18T21:21:28.819Z,17.66
2018-08-18T21:23:58.177Z,17.58
2018-08-18T21:26:27.001Z,17.56
2018-08-18T21:28:56.788Z,17.58
2018-08-18T21:31:38.840Z,17.61
2018-08-18T21:34:08.065Z,17.56
2018-08-18T21:36:36.917Z,17.53
2018-08-18T21:39:08.413Z,17.47
2018-08-18T21:41:38.868Z,17.41
2018-08-18T21:44:09.325Z,17.37
2018-08-18T21:46:38.534Z,17.36
2018-08-18T21:49:07.237Z,17.34
2018-08-18T21:51:35.604Z,17.30
2018-08-18T21:54:04.116Z,17.30
2018-08-18T21:56:36.489Z,17.23
2018-08-18T21:59:06.010Z,17.16
2018-08-18T22:01:34.780Z,17.16
2018-08-18T22:04:04.494Z,17.09
2018-08-18T22:06:32.854Z,17.04
2018-08-18T22:09:22.165Z,16.97
2018-08-18T22:11:52.024Z,16.89
2018-08-18T22:14:20.561Z,16.82
2018-08-18T22:16:56.426Z,16.76
2018-08-18T22:19:25.249Z,16.72
2018-08-18T22:21:53.728Z,16.68
2018-08-18T22:24:26.114Z,16.65
2018-08-18T22:26:55.357Z,16.64
2018-08-18T22:29:24.624Z,16.63
2018-08-18T22:31:54.096Z,16.61
2018-08-18T22:34:23.349Z,16.60
2018-08-18T22:36:56.009Z,16.59
2018-08-18T22:39:24.346Z,16.58
2018-08-18T22:41:53.598Z,16.56
2018-08-18T22:44:21.938Z,16.54
2018-08-18T22:46:51.305Z,16.51
2018-08-18T22:49:20.689Z,16.47
2018-08-18T22:51:49.041Z,16.43
2018-08-18T22:54:18.417Z,16.39
2018-08-18T22:56:51.808Z,16.36
2018-08-18T22:59:21.028Z,16.35
2018-08-18T23:01:49.943Z,16.36
2018-08-18T23:04:29.065Z,16.34
2018-08-18T23:06:58.160Z,16.29
2018-08-18T23:09:26.984Z,16.26
2018-08-18T23:11:59.181Z,16.25
2018-08-18T23:14:33.832Z,16.20
2018-08-18T23:17:02.547Z,16.17
2018-08-18T23:19:33.021Z,16.13
2018-08-18T23:22:02.550Z,16.09
2018-08-18T23:24:39.601Z,16.03
2018-08-18T23:27:07.953Z,15.98
2018-08-18T23:29:37.180Z,15.95
2018-08-18T23:32:13.765Z,15.98
2018-08-18T23:34:44.578Z,15.97
2018-08-18T23:37:18.340Z,15.96
2018-08-18T23:39:46.721Z,15.93
2018-08-18T23:42:18.834Z,15.93
2018-08-18T23:44:47.997Z,15.90
2018-08-18T23:47:16.608Z,15.87
2018-08-18T23:49:46.892Z,15.84
2018-08-18T23:52:15.985Z,15.84
2018-08-18T23:54:46.361Z,15.82
2018-08-18T23:57:16.916Z,15.79
2018-08-18T23:59:46.745Z,15.78
